Time;durP1;ratioP1;P1;durP2;ratioP2;P2;SDS_P1;SDS_P2;PMS_P1;PMS_P2;Temp;Humidity;BMP_temperature;BMP_pressure;BME280_temperature;BME280_humidity;BME280_pressure;Samples;Min_cycle;Max_cycle;Signal;HPM_P1;HPM_P2
2022/10/23 00:00:29;;;;;;;20.35;12.75;;;12.30;99.90;;;;;;5070139;28;20063;-74
2022/10/23 00:02:55;;;;;;;25.75;12.88;;;12.30;99.90;;;;;;5068045;28;20039;-73
2022/10/23 00:05:21;;;;;;;21.35;12.15;;;12.30;99.90;;;;;;5067682;28;20025;-73
2022/10/23 00:07:52;;;;;;;19.13;12.60;;;12.20;99.90;;;;;;5070654;28;20500;-73
2022/10/23 00:10:19;;;;;;;17.20;12.40;;;12.20;99.90;;;;;;5070413;28;20020;-74
2022/10/23 00:12:45;;;;;;;22.45;12.60;;;12.20;99.90;;;;;;5065912;28;20066;-74
2022/10/23 00:15:12;;;;;;;20.58;12.80;;;12.20;99.90;;;;;;5069342;28;20620;-73
2022/10/23 00:17:37;;;;;;;20.73;11.70;;;12.20;99.90;;;;;;5068008;28;20033;-73
2022/10/23 00:20:05;;;;;;;20.90;12.63;;;12.20;99.90;;;;;;5070349;28;20051;-73
2022/10/23 00:22:30;;;;;;;19.40;12.07;;;12.20;99.90;;;;;;5068889;28;20388;-73
2022/10/23 00:24:56;;;;;;;19.02;11.32;;;12.20;99.90;;;;;;5081068;28;20045;-73
2022/10/23 00:27:21;;;;;;;20.10;12.70;;;12.20;99.90;;;;;;5069131;28;20116;-74
2022/10/23 00:29:47;;;;;;;25.48;12.45;;;12.20;99.90;;;;;;5068638;28;20032;-73
2022/10/23 00:32:12;;;;;;;20.48;12.48;;;12.20;99.90;;;;;;5069529;28;20036;-73
2022/10/23 00:34:38;;;;;;;22.92;11.63;;;12.20;99.90;;;;;;5059869;28;20044;-74
2022/10/23 00:37:03;;;;;;;20.98;11.57;;;12.20;99.90;;;;;;5069179;28;20047;-73
2022/10/23 00:39:29;;;;;;;16.92;10.45;;;12.20;99.90;;;;;;5067055;28;20033;-73
2022/10/23 00:41:55;;;;;;;16.23;9.98;;;12.20;99.90;;;;;;5064907;28;20040;-73
2022/10/23 00:44:20;;;;;;;17.23;10.50;;;12.10;99.90;;;;;;5065374;28;20020;-73
2022/10/23 00:46:46;;;;;;;23.67;11.90;;;12.10;99.90;;;;;;5070519;28;20066;-73
2022/10/23 00:49:12;;;;;;;19.58;10.98;;;12.10;99.90;;;;;;5063126;28;20082;-73
2022/10/23 00:51:41;;;;;;;16.42;11.00;;;12.10;99.90;;;;;;5070714;28;20032;-73
2022/10/23 00:54:08;;;;;;;19.27;10.48;;;12.10;99.90;;;;;;5068108;28;20067;-73
2022/10/23 00:56:35;;;;;;;17.38;10.15;;;12.10;99.90;;;;;;5073066;28;20044;-73
2022/10/23 00:59:01;;;;;;;24.50;10.10;;;12.00;99.90;;;;;;5070352;28;20035;-73
2022/10/23 01:01:26;;;;;;;18.80;10.02;;;12.00;99.90;;;;;;5067634;28;20024;-73
2022/10/23 01:03:52;;;;;;;17.50;10.38;;;12.00;99.90;;;;;;5067745;28;20361;-73
2022/10/23 01:06:41;;;;;;;23.63;10.43;;;12.00;99.90;;;;;;5071876;28;20538;-73
2022/10/23 01:09:44;;;;;;;19.15;9.48;;;12.00;99.90;;;;;;5065999;28;20059;-73
2022/10/23 01:12:18;;;;;;;17.45;8.95;;;12.00;99.90;;;;;;5064377;28;20048;-73
2022/10/23 01:14:57;;;;;;;16.35;9.00;;;12.00;99.90;;;;;;5070798;28;20028;-73
2022/10/23 01:17:39;;;;;;;14.82;9.07;;;11.90;99.90;;;;;;5070945;28;20048;-74
2022/10/23 01:20:38;;;;;;;18.63;8.57;;;12.00;99.90;;;;;;5068463;28;20032;-73
2022/10/23 01:23:34;;;;;;;16.67;8.48;;;12.00;99.90;;;;;;5070815;28;20295;-73
2022/10/23 01:26:24;;;;;;;18.75;8.77;;;12.00;99.90;;;;;;5072456;28;20075;-73
2022/10/23 01:28:59;;;;;;;18.83;8.82;;;12.00;99.90;;;;;;5090197;28;20495;-73
2022/10/23 01:31:34;;;;;;;21.05;9.77;;;12.00;99.90;;;;;;5072493;28;20047;-73
2022/10/23 01:34:07;;;;;;;18.33;8.70;;;12.00;99.90;;;;;;5068630;28;20029;-73
2022/10/23 01:36:36;;;;;;;15.48;8.82;;;12.00;99.90;;;;;;5062453;28;20093;-73
2022/10/23 01:39:10;;;;;;;15.57;8.27;;;12.00;99.90;;;;;;5072452;28;20474;-73
2022/10/23 01:41:45;;;;;;;15.27;8.90;;;12.00;99.90;;;;;;5067923;28;20024;-74
2022/10/23 01:44:18;;;;;;;13.88;8.48;;;12.00;99.90;;;;;;5071350;28;20032;-74
2022/10/23 01:46:45;;;;;;;16.10;8.50;;;12.00;99.90;;;;;;5068639;28;20069;-73
2022/10/23 01:49:13;;;;;;;20.13;8.60;;;12.00;99.90;;;;;;5071894;28;20028;-73
2022/10/23 01:51:41;;;;;;;14.20;8.20;;;12.00;99.90;;;;;;5070471;28;20150;-73
2022/10/23 01:54:11;;;;;;;12.40;8.52;;;12.00;99.90;;;;;;5069613;28;20025;-73
2022/10/23 01:56:40;;;;;;;22.83;8.55;;;12.00;99.90;;;;;;5071290;28;20111;-73
2022/10/23 01:59:11;;;;;;;13.85;8.13;;;12.00;99.90;;;;;;5069194;28;20379;-73
2022/10/23 02:01:42;;;;;;;20.52;8.32;;;12.00;99.90;;;;;;5068009;28;20478;-73
2022/10/23 02:04:11;;;;;;;15.20;8.38;;;12.00;99.90;;;;;;5065582;28;20078;-73
2022/10/23 02:06:36;;;;;;;16.63;8.80;;;12.00;99.90;;;;;;5061047;28;20024;-73
2022/10/23 02:09:03;;;;;;;16.42;8.32;;;12.00;99.90;;;;;;5066905;28;20031;-73
2022/10/23 02:11:33;;;;;;;16.40;7.63;;;12.00;99.90;;;;;;5071855;28;20048;-73
2022/10/23 02:14:09;;;;;;;12.88;7.72;;;12.00;99.90;;;;;;5071245;28;20021;-73
2022/10/23 02:16:53;;;;;;;13.45;7.78;;;12.00;99.90;;;;;;5070325;28;20032;-73
2022/10/23 02:19:28;;;;;;;17.13;8.23;;;12.00;99.90;;;;;;5067345;28;20031;-74
2022/10/23 02:22:03;;;;;;;17.10;7.78;;;12.00;99.90;;;;;;5062310;28;20028;-73
2022/10/23 02:24:33;;;;;;;16.73;8.32;;;11.90;99.90;;;;;;5069449;28;20086;-73
2022/10/23 02:27:04;;;;;;;14.77;8.10;;;11.90;99.90;;;;;;5072718;28;20062;-73
2022/10/23 02:29:34;;;;;;;13.63;7.40;;;11.90;99.90;;;;;;5071093;28;20036;-73
2022/10/23 02:32:00;;;;;;;12.15;7.28;;;11.90;99.90;;;;;;5067234;28;20448;-73
2022/10/23 02:34:26;;;;;;;12.73;7.25;;;11.90;99.90;;;;;;5069550;28;20035;-74
2022/10/23 02:36:52;;;;;;;10.95;7.18;;;11.90;99.90;;;;;;5066931;28;20169;-73
2022/10/23 02:39:19;;;;;;;13.45;7.00;;;11.90;99.90;;;;;;5068032;28;20056;-73
2022/10/23 02:42:10;;;;;;;11.82;7.15;;;11.90;99.90;;;;;;5069595;28;20032;-73
2022/10/23 02:44:46;;;;;;;13.17;7.30;;;11.90;99.90;;;;;;5069776;28;20040;-73
2022/10/23 02:47:53;;;;;;;16.70;7.32;;;11.90;99.90;;;;;;5071155;28;20020;-73
2022/10/23 02:50:29;;;;;;;15.10;7.68;;;11.90;99.90;;;;;;5049717;28;20047;-74
2022/10/23 02:53:17;;;;;;;17.95;8.07;;;11.90;99.90;;;;;;5063724;28;20020;-72
2022/10/23 02:55:59;;;;;;;13.95;7.22;;;11.90;99.90;;;;;;5070338;28;20039;-72
2022/10/23 02:58:53;;;;;;;13.95;7.00;;;11.90;99.90;;;;;;5069575;28;20024;-72
2022/10/23 03:01:23;;;;;;;17.33;7.35;;;11.90;99.90;;;;;;5064703;28;20384;-73
2022/10/23 03:04:01;;;;;;;17.17;7.53;;;11.90;99.90;;;;;;5067546;28;20028;-72
2022/10/23 03:06:27;;;;;;;22.02;7.40;;;11.90;99.90;;;;;;5058744;28;20033;-72
2022/10/23 03:08:57;;;;;;;16.48;6.60;;;11.90;99.90;;;;;;5071486;28;20025;-72
2022/10/23 03:11:22;;;;;;;13.73;6.65;;;11.90;99.90;;;;;;5069262;28;20392;-72
2022/10/23 03:13:48;;;;;;;14.25;7.88;;;11.90;99.90;;;;;;5067184;28;20035;-72
2022/10/23 03:16:14;;;;;;;10.40;7.07;;;11.90;99.90;;;;;;5068886;28;20389;-72
2022/10/23 03:18:39;;;;;;;16.08;8.00;;;12.00;99.90;;;;;;5069912;28;20502;-72
2022/10/23 03:21:05;;;;;;;18.02;7.28;;;12.00;99.90;;;;;;5072535;28;20025;-72
2022/10/23 03:23:30;;;;;;;15.50;7.97;;;12.00;99.90;;;;;;5068598;28;20075;-72
2022/10/23 03:25:56;;;;;;;13.85;7.40;;;12.00;99.90;;;;;;5067665;28;20028;-72
2022/10/23 03:28:22;;;;;;;16.10;7.53;;;12.10;99.90;;;;;;5063478;28;20028;-72
2022/10/23 03:30:47;;;;;;;15.18;7.63;;;12.10;99.90;;;;;;5068601;28;20028;-72
2022/10/23 03:33:13;;;;;;;13.50;7.57;;;12.20;99.90;;;;;;5066546;28;20090;-72
2022/10/23 03:35:39;;;;;;;17.27;7.53;;;12.20;99.90;;;;;;5060957;28;20035;-72
2022/10/23 03:38:04;;;;;;;12.95;6.80;;;12.30;99.90;;;;;;5069538;28;20033;-72
2022/10/23 03:40:30;;;;;;;14.05;7.53;;;12.30;99.90;;;;;;5067671;28;20021;-72
2022/10/23 03:42:55;;;;;;;18.20;7.68;;;12.30;99.90;;;;;;5068129;28;20466;-72
2022/10/23 03:45:21;;;;;;;14.18;6.70;;;12.40;99.90;;;;;;5069963;28;20025;-72
2022/10/23 03:47:47;;;;;;;13.30;6.82;;;12.40;99.90;;;;;;5067683;28;20033;-73
2022/10/23 03:50:13;;;;;;;13.63;6.53;;;12.40;99.90;;;;;;5067638;28;20437;-72
2022/10/23 03:52:39;;;;;;;11.00;6.20;;;12.40;99.90;;;;;;5070829;28;20111;-72
2022/10/23 03:55:05;;;;;;;16.42;6.55;;;12.40;99.90;;;;;;5069247;28;20322;-72
2022/10/23 03:57:31;;;;;;;13.98;6.53;;;12.50;99.90;;;;;;5070162;28;20083;-72
2022/10/23 03:59:56;;;;;;;13.48;6.28;;;12.50;99.90;;;;;;5071032;28;20110;-73
2022/10/23 04:02:22;;;;;;;14.43;6.35;;;12.50;99.90;;;;;;5067703;28;20024;-72
2022/10/23 04:04:48;;;;;;;15.45;6.72;;;12.60;99.90;;;;;;5068018;28;20103;-72
2022/10/23 04:07:13;;;;;;;11.82;5.68;;;12.50;99.90;;;;;;5070462;28;20021;-73
2022/10/23 04:09:39;;;;;;;17.80;6.88;;;12.50;99.90;;;;;;5069052;28;20028;-72
2022/10/23 04:12:05;;;;;;;20.00;6.75;;;12.60;99.90;;;;;;5070641;28;20032;-72
2022/10/23 04:14:30;;;;;;;12.85;6.43;;;12.60;99.90;;;;;;5065787;28;20033;-72
2022/10/23 04:16:56;;;;;;;11.02;6.28;;;12.60;99.90;;;;;;5066501;28;20127;-74
2022/10/23 04:19:21;;;;;;;15.50;6.43;;;12.60;99.90;;;;;;5069538;28;20077;-72
2022/10/23 04:21:47;;;;;;;16.45;6.38;;;12.60;99.90;;;;;;5068455;28;20415;-72
2022/10/23 04:24:12;;;;;;;15.80;6.82;;;12.60;99.90;;;;;;5068431;28;20407;-72
2022/10/23 04:26:38;;;;;;;22.38;6.38;;;12.60;99.90;;;;;;5066627;28;20025;-72
2022/10/23 04:29:04;;;;;;;13.65;6.82;;;12.60;99.90;;;;;;5068539;28;20138;-72
2022/10/23 04:31:29;;;;;;;15.57;6.47;;;12.60;99.90;;;;;;5066533;28;20032;-73
2022/10/23 04:33:55;;;;;;;13.88;6.20;;;12.60;99.90;;;;;;5069448;28;20024;-72
2022/10/23 04:36:20;;;;;;;19.10;6.22;;;12.70;99.90;;;;;;5069891;28;20037;-72
2022/10/23 04:38:46;;;;;;;21.25;6.90;;;12.60;99.90;;;;;;5066743;28;20043;-72
2022/10/23 04:41:12;;;;;;;12.65;5.80;;;12.70;99.90;;;;;;5068868;28;20534;-72
2022/10/23 04:43:37;;;;;;;17.70;6.63;;;12.60;99.90;;;;;;5068330;28;20075;-72
2022/10/23 04:46:03;;;;;;;18.65;6.63;;;12.70;99.90;;;;;;5059764;28;20040;-72
2022/10/23 04:48:29;;;;;;;15.57;6.65;;;12.70;99.90;;;;;;5067801;28;20108;-72
2022/10/23 04:51:03;;;;;;;12.45;6.22;;;12.70;99.90;;;;;;5069923;28;20033;-72
2022/10/23 04:53:29;;;;;;;16.25;6.53;;;12.70;99.90;;;;;;5068614;28;20484;-72
2022/10/23 04:55:56;;;;;;;12.82;6.53;;;12.70;99.90;;;;;;5048305;28;20392;-72
2022/10/23 04:58:23;;;;;;;11.35;5.95;;;12.80;99.90;;;;;;5065930;28;20432;-72
2022/10/23 05:00:49;;;;;;;15.65;6.20;;;12.70;99.90;;;;;;5068406;28;20035;-72
2022/10/23 05:03:16;;;;;;;17.05;6.47;;;12.80;99.90;;;;;;5069615;28;20025;-72
2022/10/23 05:05:42;;;;;;;11.43;6.32;;;12.80;99.90;;;;;;5067736;28;20453;-72
2022/10/23 05:08:08;;;;;;;14.63;6.82;;;12.90;99.90;;;;;;5067770;28;20060;-72
2022/10/23 05:10:34;;;;;;;12.70;6.45;;;13.00;99.90;;;;;;5060775;28;20028;-72
2022/10/23 05:13:00;;;;;;;11.93;6.07;;;13.00;99.90;;;;;;5065485;28;20040;-73
2022/10/23 05:15:26;;;;;;;13.52;6.53;;;13.10;99.90;;;;;;5068642;28;20025;-73
2022/10/23 05:17:55;;;;;;;13.77;6.03;;;13.20;99.90;;;;;;5065690;28;20082;-72
2022/10/23 05:20:25;;;;;;;15.13;6.93;;;13.20;99.90;;;;;;5063441;28;20495;-72
2022/10/23 05:22:53;;;;;;;11.48;5.82;;;13.30;99.90;;;;;;5062836;28;20093;-72
2022/10/23 05:25:19;;;;;;;12.50;6.03;;;13.30;99.90;;;;;;5067090;28;20036;-72
2022/10/23 05:27:45;;;;;;;11.57;5.97;;;13.40;99.90;;;;;;5068708;28;20020;-72
2022/10/23 05:30:11;;;;;;;16.77;6.40;;;13.40;99.90;;;;;;5059500;28;20039;-72
2022/10/23 05:32:37;;;;;;;12.88;6.25;;;13.40;99.90;;;;;;5069286;28;20373;-72
2022/10/23 05:35:08;;;;;;;8.85;5.53;;;13.50;99.90;;;;;;5068224;28;20035;-72
2022/10/23 05:37:36;;;;;;;10.23;5.82;;;13.50;99.90;;;;;;5068505;28;20064;-72
2022/10/23 05:40:01;;;;;;;11.65;5.93;;;13.50;99.90;;;;;;5067715;28;20021;-72
2022/10/23 05:42:27;;;;;;;12.25;5.43;;;13.50;99.90;;;;;;5069884;28;20487;-72
2022/10/23 05:44:52;;;;;;;18.90;6.10;;;13.50;99.90;;;;;;5058192;28;20107;-72
2022/10/23 05:47:18;;;;;;;9.50;5.80;;;13.60;99.90;;;;;;5071630;28;20020;-72
2022/10/23 05:49:43;;;;;;;14.75;5.53;;;13.60;99.90;;;;;;5073148;28;20115;-72
2022/10/23 05:52:10;;;;;;;14.10;6.00;;;13.60;99.90;;;;;;5073987;28;20082;-72
2022/10/23 05:54:36;;;;;;;16.67;5.47;;;13.70;99.90;;;;;;5065883;28;20075;-73
2022/10/23 05:57:01;;;;;;;9.70;5.10;;;13.60;99.90;;;;;;5073961;28;20400;-73
2022/10/23 05:59:27;;;;;;;9.13;5.30;;;13.60;99.90;;;;;;5067502;28;20024;-73
2022/10/23 06:01:52;;;;;;;10.18;5.00;;;13.60;99.90;;;;;;5071343;28;20054;-73
2022/10/23 06:04:18;;;;;;;11.52;5.40;;;13.60;99.90;;;;;;5072275;28;20028;-73
2022/10/23 06:06:45;;;;;;;12.65;5.15;;;13.60;99.90;;;;;;5064961;28;20602;-73
2022/10/23 06:09:11;;;;;;;12.38;4.93;;;13.50;99.90;;;;;;5066217;28;20093;-73
2022/10/23 06:11:36;;;;;;;12.60;6.13;;;13.60;99.90;;;;;;5063534;28;20464;-73
2022/10/23 06:14:02;;;;;;;6.45;4.18;;;13.50;99.90;;;;;;5066588;28;20021;-74
2022/10/23 06:16:28;;;;;;;11.13;5.43;;;13.50;99.90;;;;;;5065155;28;20123;-74
2022/10/23 06:18:54;;;;;;;10.93;4.93;;;13.60;99.90;;;;;;5062979;28;20021;-73
2022/10/23 06:21:19;;;;;;;16.55;6.22;;;13.60;99.90;;;;;;5067603;28;20020;-73
2022/10/23 06:23:45;;;;;;;9.70;5.25;;;13.50;99.90;;;;;;5066011;28;20052;-73
2022/10/23 06:26:13;;;;;;;15.23;7.57;;;13.50;99.90;;;;;;5068689;28;20036;-74
2022/10/23 06:28:39;;;;;;;14.93;5.40;;;13.50;99.90;;;;;;5066134;28;20036;-74
2022/10/23 06:31:06;;;;;;;11.32;4.57;;;13.50;99.90;;;;;;5071904;28;20060;-73
2022/10/23 06:33:32;;;;;;;10.52;4.78;;;13.50;99.90;;;;;;5070166;28;20037;-73
2022/10/23 06:35:58;;;;;;;13.60;5.18;;;13.50;99.90;;;;;;5067050;28;20449;-73
2022/10/23 06:38:24;;;;;;;14.68;5.20;;;13.40;99.90;;;;;;5071171;28;20028;-74
2022/10/23 06:40:54;;;;;;;11.75;5.22;;;13.50;99.90;;;;;;5069561;28;20115;-73
2022/10/23 06:43:19;;;;;;;12.55;5.10;;;13.50;99.90;;;;;;5068233;28;20504;-74
2022/10/23 06:45:45;;;;;;;10.15;4.93;;;13.50;99.90;;;;;;5060072;28;20036;-73
2022/10/23 06:48:11;;;;;;;10.15;4.28;;;13.50;99.90;;;;;;5059982;28;20040;-74
2022/10/23 06:50:37;;;;;;;13.00;5.18;;;13.50;99.90;;;;;;5060361;28;20029;-74
2022/10/23 06:53:04;;;;;;;10.23;4.50;;;13.50;99.90;;;;;;5058963;28;20504;-74
2022/10/23 06:55:31;;;;;;;10.52;5.50;;;13.50;99.90;;;;;;5064298;28;20024;-73
2022/10/23 06:57:57;;;;;;;10.57;5.25;;;13.50;99.90;;;;;;5060588;28;20033;-74
2022/10/23 07:00:23;;;;;;;10.48;5.05;;;13.50;99.90;;;;;;5060729;28;20024;-73
2022/10/23 07:02:50;;;;;;;10.48;5.38;;;13.50;99.90;;;;;;5061519;28;20048;-73
2022/10/23 07:05:17;;;;;;;13.05;4.63;;;13.50;99.90;;;;;;5062830;28;20466;-73
2022/10/23 07:07:43;;;;;;;16.60;5.28;;;13.50;99.90;;;;;;5073978;28;20024;-75
2022/10/23 07:10:08;;;;;;;12.63;4.95;;;13.60;99.90;;;;;;5065647;28;20092;-73
2022/10/23 07:12:34;;;;;;;11.60;4.95;;;13.60;99.90;;;;;;5061966;28;20032;-72
2022/10/23 07:15:00;;;;;;;8.82;4.80;;;13.60;99.90;;;;;;5062269;28;20064;-73
2022/10/23 07:17:27;;;;;;;11.82;4.95;;;13.60;99.90;;;;;;5058798;28;20055;-73
2022/10/23 07:19:53;;;;;;;9.48;4.25;;;13.70;99.90;;;;;;5064684;28;20108;-72
2022/10/23 07:22:19;;;;;;;12.32;4.60;;;13.70;99.90;;;;;;5064095;28;20390;-73
2022/10/23 07:24:44;;;;;;;9.93;4.28;;;13.70;99.90;;;;;;5059406;28;20181;-73
2022/10/23 07:27:10;;;;;;;11.35;4.38;;;13.80;99.90;;;;;;5063783;28;20072;-73
2022/10/23 07:29:36;;;;;;;11.05;5.18;;;13.80;99.90;;;;;;5065074;28;20125;-74
2022/10/23 07:32:03;;;;;;;10.68;4.25;;;13.80;99.90;;;;;;5063515;28;20029;-73
2022/10/23 07:34:29;;;;;;;9.07;4.15;;;13.80;99.90;;;;;;5063086;28;20519;-73
2022/10/23 07:36:55;;;;;;;11.73;4.20;;;13.90;99.90;;;;;;5060913;28;20029;-73
2022/10/23 07:39:21;;;;;;;11.10;4.88;;;13.90;99.90;;;;;;5054848;28;20056;-74
2022/10/23 07:41:47;;;;;;;6.38;3.58;;;13.90;99.90;;;;;;5063669;28;20063;-75
2022/10/23 07:44:13;;;;;;;9.02;3.40;;;13.90;99.90;;;;;;5064059;28;20033;-73
2022/10/23 07:46:39;;;;;;;11.02;3.95;;;14.00;99.90;;;;;;5060212;28;20095;-73
2022/10/23 07:49:05;;;;;;;11.05;3.95;;;14.00;99.90;;;;;;5063391;28;20074;-74
2022/10/23 07:51:30;;;;;;;7.95;4.43;;;14.00;99.90;;;;;;5060422;28;22250;-73
2022/10/23 07:53:56;;;;;;;6.57;3.50;;;14.00;99.90;;;;;;5056572;28;20020;-74
2022/10/23 07:56:28;;;;;;;6.78;3.70;;;14.10;99.90;;;;;;5054124;28;20049;-73
2022/10/23 07:58:54;;;;;;;9.55;4.53;;;14.10;99.90;;;;;;5070967;28;20024;-73
2022/10/23 08:01:41;;;;;;;12.63;4.13;;;14.10;99.90;;;;;;5071527;28;20112;-72
2022/10/23 08:04:08;;;;;;;6.40;3.22;;;14.10;99.90;;;;;;5068746;28;20515;-72
2022/10/23 08:06:37;;;;;;;6.60;3.05;;;14.10;99.90;;;;;;5070994;28;20111;-75
2022/10/23 08:09:03;;;;;;;10.90;3.97;;;14.20;99.90;;;;;;5065511;28;20088;-73
2022/10/23 08:11:34;;;;;;;11.07;3.50;;;14.20;99.90;;;;;;5070065;28;20032;-73
2022/10/23 08:14:04;;;;;;;9.75;3.50;;;14.20;99.90;;;;;;5065890;28;20115;-73
2022/10/23 08:16:34;;;;;;;6.80;3.05;;;14.20;99.90;;;;;;5070126;28;20035;-73
2022/10/23 08:19:01;;;;;;;7.32;3.10;;;14.30;99.90;;;;;;5056439;28;20377;-74
2022/10/23 08:21:27;;;;;;;7.95;3.20;;;14.30;99.90;;;;;;5055585;28;20025;-72
2022/10/23 08:23:58;;;;;;;6.75;3.00;;;14.40;99.90;;;;;;5045921;28;20056;-72
2022/10/23 08:26:25;;;;;;;8.50;3.17;;;14.40;99.90;;;;;;5056541;28;20037;-72
2022/10/23 08:28:51;;;;;;;6.28;3.35;;;14.40;99.90;;;;;;5053298;28;20506;-74
2022/10/23 08:31:19;;;;;;;9.73;3.20;;;14.50;99.90;;;;;;5054690;28;20075;-73
2022/10/23 08:33:45;;;;;;;7.97;2.80;;;14.60;99.90;;;;;;5054685;28;20116;-71
2022/10/23 08:36:19;;;;;;;8.00;2.90;;;14.60;99.90;;;;;;5058639;28;20040;-72
2022/10/23 08:38:45;;;;;;;5.07;2.38;;;14.70;99.90;;;;;;5069105;28;20025;-73
2022/10/23 08:41:21;;;;;;;7.15;3.17;;;14.80;99.90;;;;;;5050827;28;20035;-73
2022/10/23 08:43:52;;;;;;;8.60;2.95;;;14.80;99.90;;;;;;5055024;28;20025;-74
2022/10/23 08:46:20;;;;;;;5.40;2.80;;;14.90;99.90;;;;;;5051457;28;20049;-73
2022/10/23 08:48:52;;;;;;;6.35;2.78;;;15.00;99.90;;;;;;5054155;28;20086;-73
2022/10/23 08:51:38;;;;;;;5.25;2.65;;;15.10;99.90;;;;;;5051601;28;20029;-72
2022/10/23 08:54:17;;;;;;;11.38;3.35;;;15.20;99.90;;;;;;5070223;28;20040;-72
2022/10/23 08:57:14;;;;;;;5.25;2.38;;;15.20;99.90;;;;;;5055998;28;20059;-73
2022/10/23 08:59:46;;;;;;;6.88;2.40;;;15.30;99.90;;;;;;5053241;28;20037;-72
2022/10/23 09:02:39;;;;;;;9.38;3.10;;;15.40;99.90;;;;;;5050330;28;20032;-72
2022/10/23 09:05:13;;;;;;;9.73;2.85;;;15.50;99.90;;;;;;5061843;28;20028;-73
2022/10/23 09:07:44;;;;;;;6.80;2.72;;;15.50;99.90;;;;;;5063015;28;20415;-73
2022/10/23 09:10:12;;;;;;;9.02;2.55;;;15.50;99.90;;;;;;5059238;28;20087;-72
2022/10/23 09:12:39;;;;;;;6.32;3.15;;;15.50;99.90;;;;;;5089395;28;20101;-73
2022/10/23 09:15:17;;;;;;;6.68;2.70;;;15.40;99.90;;;;;;5068855;28;20031;-73
2022/10/23 09:17:43;;;;;;;5.97;2.55;;;15.40;99.90;;;;;;5067451;28;20028;-73
2022/10/23 09:20:17;;;;;;;5.93;2.15;;;15.40;99.90;;;;;;5072509;28;20016;-73
2022/10/23 09:22:44;;;;;;;6.03;2.78;;;15.40;99.90;;;;;;5073184;28;20037;-72
2022/10/23 09:25:22;;;;;;;10.73;2.53;;;15.40;99.90;;;;;;5071490;28;20088;-72
2022/10/23 09:27:51;;;;;;;8.48;2.30;;;15.40;99.90;;;;;;5074677;28;20025;-73
2022/10/23 09:30:37;;;;;;;7.30;2.20;;;15.50;99.90;;;;;;5072681;28;20111;-72
2022/10/23 09:33:15;;;;;;;8.40;2.47;;;15.50;99.90;;;;;;5072740;28;20050;-73
2022/10/23 09:36:12;;;;;;;6.82;2.35;;;15.50;99.90;;;;;;5069924;28;20028;-72
2022/10/23 09:38:50;;;;;;;8.82;2.67;;;15.50;99.90;;;;;;5061830;28;20045;-73
2022/10/23 09:41:21;;;;;;;6.45;3.17;;;15.50;99.90;;;;;;5055086;28;20024;-73
2022/10/23 09:44:01;;;;;;;5.30;1.60;;;15.50;99.90;;;;;;5088456;28;20128;-73
2022/10/23 09:46:44;;;;;;;3.35;1.77;;;15.60;99.90;;;;;;5063079;28;20286;-72
2022/10/23 09:49:24;;;;;;;6.47;1.70;;;15.60;99.90;;;;;;5071200;28;20025;-73
2022/10/23 09:51:52;;;;;;;5.03;1.50;;;15.60;99.90;;;;;;5071970;28;20066;-73
2022/10/23 09:54:22;;;;;;;4.05;1.77;;;15.70;99.90;;;;;;5064222;28;20107;-73
2022/10/23 09:56:49;;;;;;;6.05;1.73;;;15.70;99.90;;;;;;5074155;28;20048;-73
2022/10/23 09:59:20;;;;;;;8.60;1.65;;;15.80;99.90;;;;;;5063316;28;20025;-73
2022/10/23 10:01:51;;;;;;;3.95;1.73;;;15.90;99.90;;;;;;5069302;28;20422;-73
2022/10/23 10:04:17;;;;;;;6.90;1.77;;;15.90;99.90;;;;;;5070686;28;20029;-73
2022/10/23 10:06:43;;;;;;;6.22;1.15;;;16.00;99.90;;;;;;5072027;28;20056;-72
2022/10/23 10:09:15;;;;;;;8.70;2.20;;;16.00;99.90;;;;;;5070300;28;20056;-73
2022/10/23 10:11:46;;;;;;;4.07;1.45;;;16.20;99.90;;;;;;5073727;28;20017;-73
2022/10/23 10:14:42;;;;;;;4.78;1.75;;;16.30;99.90;;;;;;5065271;28;20028;-73
2022/10/23 10:17:33;;;;;;;4.97;1.33;;;16.30;99.90;;;;;;5071136;28;20032;-72
2022/10/23 10:20:17;;;;;;;3.75;1.50;;;16.40;99.90;;;;;;5072027;28;20107;-72
2022/10/23 10:22:51;;;;;;;4.20;1.42;;;16.50;99.90;;;;;;5072613;28;20032;-73
2022/10/23 10:25:49;;;;;;;4.07;1.10;;;16.50;99.90;;;;;;5071703;28;20040;-73
2022/10/23 10:28:58;;;;;;;6.38;2.20;;;16.60;99.90;;;;;;5059001;28;20655;-74
2022/10/23 10:31:43;;;;;;;5.28;1.08;;;16.60;99.90;;;;;;5068381;28;20125;-71
2022/10/23 10:34:31;;;;;;;6.93;1.05;;;16.60;99.90;;;;;;5072473;28;20028;-72
2022/10/23 10:37:21;;;;;;;5.03;1.50;;;16.60;99.90;;;;;;5073207;28;20037;-73
2022/10/23 10:40:03;;;;;;;3.53;1.02;;;16.70;99.90;;;;;;5067987;28;20032;-73
2022/10/23 10:42:43;;;;;;;4.68;1.25;;;16.70;99.90;;;;;;5067426;28;20714;-73
2022/10/23 10:45:31;;;;;;;6.95;1.08;;;16.80;99.90;;;;;;5068871;28;20111;-73
2022/10/23 10:48:06;;;;;;;4.45;1.17;;;16.80;99.90;;;;;;5093385;28;20448;-73
2022/10/23 10:51:02;;;;;;;6.18;0.93;;;16.90;99.90;;;;;;5068764;28;20021;-73
2022/10/23 10:53:52;;;;;;;3.03;1.00;;;16.90;99.90;;;;;;5067909;28;20020;-73
2022/10/23 10:56:25;;;;;;;5.70;1.00;;;17.00;99.90;;;;;;5068965;28;20613;-73
2022/10/23 10:58:59;;;;;;;3.75;0.85;;;17.00;99.90;;;;;;5058033;28;20063;-73
2022/10/23 11:02:03;;;;;;;6.32;0.90;;;17.10;99.90;;;;;;5066876;28;20031;-73
2022/10/23 11:04:53;;;;;;;3.60;1.00;;;17.20;99.90;;;;;;5054890;28;20028;-72
2022/10/23 11:07:23;;;;;;;6.25;1.15;;;17.30;99.90;;;;;;5065497;28;20120;-72
2022/10/23 11:09:49;;;;;;;4.25;0.82;;;17.30;99.90;;;;;;5067776;28;20454;-72
2022/10/23 11:12:21;;;;;;;4.07;0.82;;;17.40;99.90;;;;;;5068864;28;20071;-73
2022/10/23 11:14:48;;;;;;;3.67;0.82;;;17.50;99.90;;;;;;5086105;28;20020;-73
2022/10/23 11:17:42;;;;;;;5.57;0.80;;;17.50;99.90;;;;;;5070545;28;20037;-72
2022/10/23 11:20:38;;;;;;;3.95;1.27;;;17.60;99.90;;;;;;5069417;28;20029;-72
2022/10/23 11:23:16;;;;;;;5.55;1.02;;;17.70;99.90;;;;;;5072418;28;20020;-73
2022/10/23 11:26:07;;;;;;;4.45;1.08;;;17.80;99.90;;;;;;5070213;28;20020;-72
2022/10/23 11:29:18;;;;;;;5.57;1.10;;;17.80;99.90;;;;;;5068701;28;20032;-73
2022/10/23 11:32:02;;;;;;;4.32;1.02;;;17.90;99.90;;;;;;5036205;28;20094;-72
2022/10/23 11:35:09;;;;;;;5.35;1.35;;;18.00;99.90;;;;;;5070860;28;20059;-73
2022/10/23 11:37:35;;;;;;;5.80;1.30;;;18.00;99.90;;;;;;5070210;28;20059;-73
2022/10/23 11:40:23;;;;;;;4.57;0.90;;;18.10;99.90;;;;;;5067112;28;20060;-73
2022/10/23 11:42:50;;;;;;;2.95;1.02;;;18.10;99.90;;;;;;5070162;28;20044;-72
2022/10/23 11:45:39;;;;;;;3.38;0.82;;;18.20;99.90;;;;;;5069231;28;20032;-73
2022/10/23 11:48:14;;;;;;;4.60;0.80;;;18.20;99.90;;;;;;5070337;28;20031;-73
2022/10/23 11:50:43;;;;;;;6.50;1.00;;;18.20;99.90;;;;;;5065256;28;20193;-73
2022/10/23 11:53:26;;;;;;;7.38;1.10;;;18.30;99.90;;;;;;5066320;28;20016;-74
2022/10/23 11:56:04;;;;;;;5.00;0.90;;;18.30;99.90;;;;;;5063425;28;20024;-73
2022/10/23 11:58:47;;;;;;;3.15;0.70;;;18.40;99.90;;;;;;5068162;28;20036;-73
2022/10/23 12:01:29;;;;;;;6.13;1.48;;;18.50;99.90;;;;;;5067535;28;20419;-73
2022/10/23 12:03:57;;;;;;;2.25;0.90;;;18.50;99.90;;;;;;5065187;28;20048;-73
2022/10/23 12:06:30;;;;;;;5.22;0.73;;;18.60;99.90;;;;;;5069796;28;20074;-73
2022/10/23 12:09:00;;;;;;;7.93;1.00;;;18.70;99.90;;;;;;5070979;28;20074;-73
2022/10/23 12:11:43;;;;;;;4.25;0.70;;;18.80;99.90;;;;;;5067679;28;20060;-72
2022/10/23 12:14:26;;;;;;;5.60;0.70;;;18.80;99.90;;;;;;5050984;28;20033;-73
2022/10/23 12:16:52;;;;;;;3.97;1.00;;;18.90;99.90;;;;;;5071806;28;20383;-72
2022/10/23 12:19:21;;;;;;;3.90;0.80;;;18.90;99.90;;;;;;5070526;28;20021;-73
2022/10/23 12:21:55;;;;;;;2.75;0.90;;;19.00;99.90;;;;;;5071668;28;20016;-72
2022/10/23 12:25:15;;;;;;;3.13;0.70;;;19.00;99.90;;;;;;5083364;28;20040;-73
2022/10/23 12:27:48;;;;;;;2.70;0.82;;;19.00;99.90;;;;;;5026791;28;20021;-73
2022/10/23 12:30:44;;;;;;;5.20;0.80;;;19.00;99.90;;;;;;5064315;28;20074;-73
2022/10/23 12:33:36;;;;;;;3.25;0.85;;;19.00;99.90;;;;;;5065628;28;20123;-73
2022/10/23 12:36:33;;;;;;;3.63;1.73;;;19.00;99.90;;;;;;5064905;28;20039;-72
2022/10/23 12:38:59;;;;;;;3.25;0.70;;;19.00;99.90;;;;;;5062023;28;20024;-73
2022/10/23 12:41:28;;;;;;;5.03;0.95;;;19.10;99.90;;;;;;5066872;28;20024;-72
2022/10/23 12:43:58;;;;;;;4.80;1.23;;;19.10;99.90;;;;;;5066904;28;20036;-73
2022/10/23 12:46:34;;;;;;;4.05;0.60;;;19.10;99.90;;;;;;5069171;28;20039;-73
2022/10/23 12:49:03;;;;;;;6.40;0.80;;;19.10;99.90;;;;;;5068999;28;20736;-74
2022/10/23 12:51:31;;;;;;;2.00;0.75;;;19.10;99.90;;;;;;5068312;28;20570;-72
2022/10/23 12:53:57;;;;;;;4.88;0.90;;;19.10;99.90;;;;;;5066443;28;20036;-72
2022/10/23 12:56:24;;;;;;;6.03;1.30;;;19.10;99.90;;;;;;5067622;28;20410;-73
2022/10/23 12:58:54;;;;;;;2.40;0.80;;;19.10;99.90;;;;;;5071109;28;20074;-73
2022/10/23 13:01:29;;;;;;;6.35;0.80;;;19.10;99.90;;;;;;5068914;28;20029;-73
2022/10/23 13:03:58;;;;;;;2.72;0.77;;;19.20;99.90;;;;;;5067353;28;20483;-73